Time;durP1;ratioP1;P1;durP2;ratioP2;P2;SDS_P1;SDS_P2;PMS_P1;PMS_P2;Temp;Humidity;BMP_temperature;BMP_pressure;BME280_temperature;BME280_humidity;BME280_pressure;Samples;Min_cycle;Max_cycle;Signal;HPM_P1;HPM_P2
2022/09/18 00:00:04;;;;;;;;;5.00;5.00;;;;;16.60;44.33;101563.13;2098761;28;47357;-61
2022/09/18 00:01:10;;;;;;;;;5.75;4.75;;;;;16.60;44.36;101563.13;2089329;28;47777;-63
2022/09/18 00:02:10;;;;;;;;;5.00;4.00;;;;;16.59;44.31;101561.38;2088477;28;47518;-63
2022/09/18 00:03:10;;;;;;;;;5.00;5.00;;;;;16.57;44.42;101560.56;2099648;28;47384;-61
2022/09/18 00:04:13;;;;;;;;;5.00;5.00;;;;;16.57;44.02;101560.56;2095570;28;47775;-62
2022/09/18 00:05:13;;;;;;;;;3.50;3.25;;;;;16.56;44.60;101558.81;2094338;28;47297;-62
2022/09/18 00:06:17;;;;;;;;;4.67;4.67;;;;;16.57;44.64;101552.50;2094448;28;47198;-61
2022/09/18 00:07:18;;;;;;;;;3.00;3.00;;;;;16.55;44.70;101555.25;2094483;28;48294;-61
2022/09/18 00:08:18;;;;;;;;;5.25;4.00;;;;;16.55;44.70;101557.06;2103701;28;47790;-61
2022/09/18 00:09:19;;;;;;;;;4.33;4.33;;;;;16.54;44.58;101558.88;2102693;27;47649;-62
2022/09/18 00:10:19;;;;;;;;;4.50;3.75;;;;;16.54;44.86;101558.00;2101658;28;47137;-62
2022/09/18 00:11:22;;;;;;;;;4.00;4.00;;;;;16.53;44.55;101557.13;2103385;27;47322;-61
2022/09/18 00:12:22;;;;;;;;;3.75;3.75;;;;;16.52;44.94;101552.69;2096863;28;48180;-62
2022/09/18 00:13:23;;;;;;;;;4.33;4.00;;;;;16.52;44.66;101552.69;2103201;28;47307;-60
2022/09/18 00:14:23;;;;;;;;;3.00;3.00;;;;;16.52;44.96;101554.50;2100450;28;47926;-62
2022/09/18 00:15:24;;;;;;;;;3.67;3.67;;;;;16.50;44.39;101551.81;2103053;28;47164;-61
2022/09/18 00:16:24;;;;;;;;;4.00;4.00;;;;;16.48;44.79;101542.97;2103756;28;47764;-61
2022/09/18 00:17:25;;;;;;;;;5.33;5.33;;;;;16.49;44.76;101547.41;2100891;28;47561;-62
2022/09/18 00:18:25;;;;;;;;;3.67;3.67;;;;;16.49;44.70;101552.75;2104248;28;47772;-61
2022/09/18 00:19:26;;;;;;;;;3.00;3.00;;;;;16.48;45.01;101543.84;2103627;28;47362;-62
2022/09/18 00:20:26;;;;;;;;;5.00;3.67;;;;;16.47;45.05;101541.22;2104621;28;47488;-62
2022/09/18 00:21:28;;;;;;;;;3.33;3.33;;;;;16.48;44.69;101548.31;2102427;27;45996;-59
2022/09/18 00:22:29;;;;;;;;;3.40;3.40;;;;;16.46;44.98;101545.69;2100545;28;47789;-61
2022/09/18 00:23:29;;;;;;;;;2.00;2.00;;;;;16.44;45.31;101552.91;2102820;28;47660;-62
2022/09/18 00:24:30;;;;;;;;;5.00;5.00;;;;;16.43;45.21;101544.94;2077997;28;47349;-62
2022/09/18 00:25:31;;;;;;;;;4.50;3.50;;;;;16.43;44.73;101545.81;2078143;28;47464;-62
2022/09/18 00:26:32;;;;;;;;;6.00;6.00;;;;;16.43;45.10;101551.16;2106550;28;45034;-61
2022/09/18 00:27:32;;;;;;;;;5.80;5.40;;;;;16.43;45.17;101551.16;2100980;28;47822;-61
2022/09/18 00:28:34;;;;;;;;;3.00;3.00;;;;;16.43;44.77;101551.16;2103861;27;48100;-60
2022/09/18 00:29:34;;;;;;;;;3.00;3.00;;;;;16.43;44.77;101550.28;2104285;28;47693;-62
2022/09/18 00:30:34;;;;;;;;;4.50;4.00;;;;;16.43;44.90;101542.25;2096281;28;47594;-62
2022/09/18 00:31:35;;;;;;;;;6.00;3.00;;;;;16.43;45.14;101547.63;2094830;28;48038;-62
2022/09/18 00:32:35;;;;;;;;;4.00;4.00;;;;;16.42;44.92;101548.53;2106072;28;47651;-61
2022/09/18 00:33:36;;;;;;;;;4.50;4.50;;;;;16.42;45.47;101549.41;2101708;28;47630;-64
2022/09/18 00:34:38;;;;;;;;;5.25;4.00;;;;;16.41;45.56;101544.13;2105465;28;47627;-62
2022/09/18 00:35:42;;;;;;;;;3.75;3.25;;;;;16.39;45.22;101551.34;2100828;28;47059;-61
2022/09/18 00:36:43;;;;;;;;;4.00;4.00;;;;;16.39;44.85;101551.34;2095907;28;47410;-62
2022/09/18 00:37:43;;;;;;;;;7.00;6.00;;;;;16.37;44.83;101548.69;2093297;28;47942;-62
2022/09/18 00:38:45;;;;;;;;;6.25;5.00;;;;;16.36;44.99;101551.41;2102251;28;46345;-62
2022/09/18 00:39:45;;;;;;;;;4.25;4.25;;;;;16.34;45.19;101551.47;2103724;28;47978;-63
2022/09/18 00:40:45;;;;;;;;;3.00;3.00;;;;;16.31;45.17;101553.38;2097683;27;47307;-62
2022/09/18 00:41:46;;;;;;;;;4.33;4.33;;;;;16.31;45.37;101550.69;2104841;28;47715;-62
2022/09/18 00:42:46;;;;;;;;;4.00;4.00;;;;;16.28;45.27;101549.00;2104841;28;47407;-62
2022/09/18 00:43:47;;;;;;;;;4.67;2.67;;;;;16.27;45.56;101547.25;2104709;28;47697;-62
2022/09/18 00:44:48;;;;;;;;;3.33;3.00;;;;;16.28;45.14;101551.69;2104807;28;47362;-61
2022/09/18 00:45:54;;;;;;;;;4.00;4.00;;;;;16.28;45.43;101543.63;2104990;28;47777;-62
2022/09/18 00:47:06;;;;;;;;;5.00;4.00;;;;;16.28;45.16;101548.13;2095547;28;47306;-62
2022/09/18 00:48:08;;;;;;;;;5.25;4.75;;;;;16.28;45.43;101545.44;2091096;28;45997;-62
2022/09/18 00:49:28;;;;;;;;;3.25;3.25;;;;;16.27;45.42;101541.88;2106835;27;47800;-60
2022/09/18 00:50:29;;;;;;;;;3.75;3.00;;;;;16.28;45.26;101546.31;2082565;28;47868;-62
2022/09/18 00:51:35;;;;;;;;;2.00;2.00;;;;;16.30;45.73;101549.81;2079510;28;47537;-61
2022/09/18 00:52:57;;;;;;;;;3.25;3.25;;;;;16.32;45.38;101553.31;2080006;28;47437;-62
2022/09/18 00:54:31;;;;;;;;;5.00;5.00;;;;;16.34;45.42;101545.22;2071161;28;46127;-62
2022/09/18 00:55:36;;;;;;;;;4.25;3.50;;;;;16.33;45.26;101546.16;2074238;28;48000;-62
2022/09/18 00:56:38;;;;;;;;;4.50;2.50;;;;;16.32;45.16;101542.59;2063309;28;48340;-62
2022/09/18 00:57:48;;;;;;;;;4.00;3.75;;;;;16.32;45.68;101549.75;2061496;28;48223;-62
2022/09/18 00:58:48;;;;;;;;;3.50;3.50;;;;;16.32;45.40;101547.09;2078282;28;47193;-61
2022/09/18 00:59:50;;;;;;;;;7.00;4.00;;;;;16.32;45.57;101545.28;2087697;28;47471;-61
2022/09/18 01:00:54;;;;;;;;;4.40;4.00;;;;;16.33;45.44;101546.16;2086428;28;47661;-61
2022/09/18 01:01:56;;;;;;;;;2.25;2.25;;;;;16.34;45.59;101547.91;2077717;28;47542;-62
2022/09/18 01:02:58;;;;;;;;;3.20;3.20;;;;;16.35;45.23;101547.84;2076762;28;48064;-61
2022/09/18 01:03:58;;;;;;;;;5.75;4.75;;;;;16.35;45.63;101545.19;2076768;28;47224;-62
2022/09/18 01:04:59;;;;;;;;;3.33;3.00;;;;;16.37;45.25;101553.16;2078025;28;47896;-62
2022/09/18 01:06:20;;;;;;;;;3.00;3.00;;;;;16.37;45.55;101550.47;2076982;28;47913;-62
2022/09/18 01:07:39;;;;;;;;;3.00;3.00;;;;;16.36;45.45;101549.59;2078020;28;47610;-63
2022/09/18 01:08:58;;;;;;;;;2.75;2.75;;;;;16.37;45.55;101559.38;2079115;28;47458;-60
2022/09/18 01:10:34;;;;;;;;;1.50;1.50;;;;;16.39;45.77;101554.88;2079388;28;47536;-63
2022/09/18 01:11:50;;;;;;;;;5.40;5.20;;;;;16.40;45.17;101553.09;2043971;28;47916;-61
2022/09/18 01:12:59;;;;;;;;;5.00;3.50;;;;;16.38;45.36;101558.47;2038529;28;47239;-62
2022/09/18 01:14:26;;;;;;;;;4.40;4.00;;;;;16.36;45.09;101554.97;2046966;28;47742;-61
2022/09/18 01:15:44;;;;;;;;;3.25;3.25;;;;;16.33;45.26;101554.19;2044154;28;46145;-63
2022/09/18 01:16:56;;;;;;;;;4.00;3.00;;;;;16.31;45.44;101548.88;2043284;28;47532;-61
2022/09/18 01:18:21;;;;;;;;;4.00;3.75;;;;;16.31;45.41;101553.38;2043430;28;47461;-61
2022/09/18 01:19:39;;;;;;;;;3.75;3.50;;;;;16.31;45.36;101554.25;2043910;28;47838;-62
2022/09/18 01:21:07;;;;;;;;;4.00;3.50;;;;;16.29;45.77;101556.09;2038945;28;46716;-62
2022/09/18 01:22:36;;;;;;;;;5.00;5.00;;;;;16.29;45.66;101548.06;2046435;28;47293;-62
2022/09/18 01:23:57;;;;;;;;;5.75;5.75;;;;;16.27;45.93;101551.72;2040784;28;47997;-62
2022/09/18 01:25:32;;;;;;;;;3.00;3.00;;;;;16.24;45.58;101550.00;2043677;28;47134;-62
2022/09/18 01:26:52;;;;;;;;;4.25;3.25;;;;;16.24;45.83;101541.09;2007862;29;47585;-61
2022/09/18 01:28:12;;;;;;;;;4.00;4.00;;;;;16.26;45.96;101544.59;2007892;29;48033;-63
2022/09/18 01:29:18;;;;;;;;;5.25;3.25;;;;;16.26;45.94;101541.91;2021303;29;47694;-63
2022/09/18 01:30:19;;;;;;;;;4.00;4.00;;;;;16.27;45.99;101552.59;2023476;29;48017;-62
2022/09/18 01:31:28;;;;;;;;;2.00;2.00;;;;;16.28;45.95;101540.97;2022141;29;47298;-62
2022/09/18 01:32:34;;;;;;;;;5.20;5.20;;;;;16.29;45.70;101541.84;2022701;29;47897;-63
2022/09/18 01:33:51;;;;;;;;;8.75;5.75;;;;;16.28;45.58;101540.97;2021474;29;46688;-62
2022/09/18 01:35:03;;;;;;;;;5.75;3.25;;;;;16.27;45.98;101541.88;2022326;29;47856;-62
2022/09/18 01:36:11;;;;;;;;;4.20;4.20;;;;;16.24;45.92;101543.75;2021967;29;46344;-63
2022/09/18 01:37:48;;;;;;;;;4.20;4.20;;;;;16.24;45.88;101539.28;2020637;29;49103;-62
2022/09/18 01:38:56;;;;;;;;;3.25;3.25;;;;;16.24;46.27;101546.44;2021981;29;47397;-61
2022/09/18 01:40:03;;;;;;;;;2.50;2.50;;;;;16.24;45.82;101541.97;2020185;29;47602;-61
2022/09/18 01:41:10;;;;;;;;;4.40;4.20;;;;;16.25;46.07;101540.16;2022158;29;47705;-63
2022/09/18 01:42:13;;;;;;;;;4.00;4.00;;;;;16.23;45.91;101536.66;2023086;29;47659;-62
2022/09/18 01:43:17;;;;;;;;;3.00;3.00;;;;;16.20;45.69;101545.66;2022456;29;46865;-62
2022/09/18 01:44:28;;;;;;;;;4.00;2.75;;;;;16.20;46.33;101543.00;2023200;29;47308;-60
2022/09/18 01:45:33;;;;;;;;;3.00;3.00;;;;;16.21;46.36;101551.91;2021644;29;47513;-62
2022/09/18 01:46:38;;;;;;;;;3.75;3.00;;;;;16.22;46.03;101548.28;2023319;29;47401;-62
2022/09/18 01:47:46;;;;;;;;;3.80;3.60;;;;;16.21;46.19;101550.09;2021466;29;47653;-62
2022/09/18 01:48:54;;;;;;;;;4.00;4.00;;;;;16.21;45.73;101541.19;2028532;28;47693;-62
2022/09/18 01:49:59;;;;;;;;;3.00;2.25;;;;;16.18;46.21;101537.69;2059286;28;47797;-62
2022/09/18 01:51:13;;;;;;;;;2.80;2.40;;;;;16.18;46.22;101543.03;2062218;28;47555;-62
2022/09/18 01:52:21;;;;;;;;;2.00;1.25;;;;;16.16;46.02;101538.66;2061525;28;47516;-61
2022/09/18 01:53:33;;;;;;;;;4.20;3.80;;;;;16.14;46.28;101536.03;2063426;28;47482;-62
2022/09/18 01:54:39;;;;;;;;;3.25;3.25;;;;;16.14;46.28;101535.16;2054972;28;47550;-61
2022/09/18 01:55:43;;;;;;;;;4.50;3.75;;;;;16.13;46.63;101538.75;2061444;28;46350;-62
2022/09/18 01:56:51;;;;;;;;;3.50;2.50;;;;;16.12;46.41;101535.19;2057015;28;47342;-62
2022/09/18 01:57:57;;;;;;;;;3.20;3.20;;;;;16.11;46.07;101537.91;2062434;28;47610;-61
2022/09/18 01:59:03;;;;;;;;;5.60;4.40;;;;;16.09;46.54;101537.97;2056136;28;47623;-62
2022/09/18 02:00:09;;;;;;;;;2.60;2.60;;;;;16.09;46.17;101532.63;2061557;28;47619;-62
2022/09/18 02:01:14;;;;;;;;;3.25;3.25;;;;;16.10;46.21;101533.50;2059556;28;45881;-62
2022/09/18 02:02:29;;;;;;;;;4.50;3.75;;;;;16.11;46.52;101536.13;2059785;28;48058;-62
2022/09/18 02:03:37;;;;;;;;;3.50;2.50;;;;;16.11;45.98;101536.13;2060580;28;48076;-62
2022/09/18 02:04:41;;;;;;;;;3.60;3.60;;;;;16.10;46.51;101536.16;2086334;28;48287;-62
2022/09/18 02:05:47;;;;;;;;;3.50;3.50;;;;;16.08;46.40;101530.88;2102450;28;47519;-62
2022/09/18 02:06:56;;;;;;;;;4.60;2.60;;;;;16.07;46.50;101529.13;2101208;28;48240;-62
2022/09/18 02:07:59;;;;;;;;;4.60;4.40;;;;;16.07;46.57;101523.75;2097444;28;47812;-61
2022/09/18 02:09:02;;;;;;;;;3.60;3.60;;;;;16.06;45.99;101518.47;2101692;28;47724;-62
2022/09/18 02:10:04;;;;;;;;;2.00;2.00;;;;;16.05;46.51;101527.41;2101195;28;47937;-62
2022/09/18 02:11:12;;;;;;;;;3.50;3.50;;;;;16.04;46.54;101523.88;2103511;27;47228;-62
2022/09/18 02:12:18;;;;;;;;;2.40;2.40;;;;;16.03;46.83;101531.94;2105203;28;47221;-62
2022/09/18 02:13:25;;;;;;;;;3.40;3.20;;;;;16.03;46.28;101531.94;2103654;27;47565;-62
2022/09/18 02:14:33;;;;;;;;;2.50;2.50;;;;;16.03;46.24;101529.28;2097246;28;47683;-62
2022/09/18 02:15:38;;;;;;;;;3.00;2.40;;;;;16.00;46.44;101527.53;2102675;28;47444;-63
2022/09/18 02:16:48;;;;;;;;;2.75;1.75;;;;;15.99;46.52;101528.47;2105547;28;47762;-61
2022/09/18 02:17:55;;;;;;;;;1.75;1.75;;;;;15.97;46.81;101533.00;2103763;28;47776;-61
2022/09/18 02:18:59;;;;;;;;;3.50;3.25;;;;;15.95;46.69;101526.81;2103337;28;47787;-61
2022/09/18 02:20:05;;;;;;;;;2.75;2.75;;;;;15.95;46.89;101534.84;2098608;28;47910;-62
2022/09/18 02:21:11;;;;;;;;;4.40;3.00;;;;;15.94;46.96;101532.22;2089656;28;47416;-62
2022/09/18 02:22:16;;;;;;;;;3.00;3.00;;;;;15.93;46.56;101525.13;2094509;28;48279;-62
2022/09/18 02:23:17;;;;;;;;;3.50;3.25;;;;;15.92;46.37;101528.72;2100636;28;47374;-61
2022/09/18 02:24:22;;;;;;;;;2.00;2.00;;;;;15.92;46.89;101528.72;2105194;28;47471;-61
2022/09/18 02:25:29;;;;;;;;;4.40;3.00;;;;;15.89;46.68;101524.34;2103084;27;47630;-62
2022/09/18 02:26:31;;;;;;;;;4.20;4.20;;;;;15.88;46.90;101517.25;2101167;28;47684;-62
2022/09/18 02:27:35;;;;;;;;;2.00;2.00;;;;;15.88;47.11;101527.94;2103495;28;47602;-61
2022/09/18 02:28:38;;;;;;;;;2.25;2.00;;;;;15.87;46.91;101523.50;2096175;28;47644;-62
2022/09/18 02:29:42;;;;;;;;;2.75;2.75;;;;;15.87;47.01;101526.16;2095543;28;48051;-61
2022/09/18 02:30:42;;;;;;;;;1.75;1.75;;;;;15.87;46.97;101523.50;2102706;27;47532;-61
2022/09/18 02:31:43;;;;;;;;;3.67;3.33;;;;;15.85;47.12;101528.91;2103028;28;47006;-62
2022/09/18 02:32:44;;;;;;;;;1.67;1.67;;;;;15.84;46.90;101519.13;2103990;28;47052;-61
2022/09/18 02:33:44;;;;;;;;;2.33;2.33;;;;;15.84;46.93;101521.78;2104287;28;47124;-62
2022/09/18 02:34:45;;;;;;;;;2.67;2.67;;;;;15.84;47.03;101524.47;2103815;28;47676;-62
2022/09/18 02:35:56;;;;;;;;;2.33;2.33;;;;;15.84;47.03;101527.16;2100986;28;48046;-62
2022/09/18 02:37:18;;;;;;;;;3.40;3.40;;;;;15.83;47.10;101522.72;2103492;28;48329;-62
2022/09/18 02:38:30;;;;;;;;;3.75;3.75;;;;;15.84;47.45;101521.78;2104771;27;47442;-62
2022/09/18 02:40:08;;;;;;;;;4.00;4.00;;;;;15.85;47.02;101518.19;2103770;27;47504;-62
2022/09/18 02:41:57;;;;;;;;;4.75;4.00;;;;;15.87;47.16;101520.81;2098840;28;47438;-60
2022/09/18 02:43:09;;;;;;;;;3.60;3.40;;;;;15.85;47.22;101514.63;2097336;28;47890;-62
2022/09/18 02:44:24;;;;;;;;;6.80;3.80;;;;;15.84;47.34;101521.78;2103356;28;47232;-62
2022/09/18 02:45:27;;;;;;;;;2.50;2.50;;;;;15.83;46.85;101520.03;2104101;28;48478;-62
2022/09/18 02:46:46;;;;;;;;;2.50;2.00;;;;;15.82;47.00;101526.31;2100191;28;47777;-63
2022/09/18 02:47:58;;;;;;;;;2.25;2.25;;;;;15.81;47.19;101516.53;2103243;27;46890;-63
2022/09/18 02:49:08;;;;;;;;;3.25;3.25;;;;;15.79;47.35;101529.09;2103597;28;47566;-62
2022/09/18 02:50:59;;;;;;;;;4.25;3.25;;;;;15.76;47.44;101523.84;2104510;28;47675;-62
2022/09/18 02:52:05;;;;;;;;;3.60;3.60;;;;;15.74;47.45;101520.31;2062655;28;47464;-61
2022/09/18 02:53:26;;;;;;;;;6.00;6.00;;;;;15.72;47.22;101526.63;2068742;28;47507;-62
2022/09/18 02:54:37;;;;;;;;;3.20;3.20;;;;;15.71;47.45;101517.75;2067680;28;47403;-61
2022/09/18 02:56:02;;;;;;;;;3.00;2.50;;;;;15.70;47.00;101517.78;2060401;28;47234;-62
2022/09/18 02:57:09;;;;;;;;;3.60;3.60;;;;;15.67;47.27;101513.41;2060664;28;47668;-61
2022/09/18 02:58:47;;;;;;;;;2.40;1.40;;;;;15.66;47.70;101517.00;2062645;28;47744;-62
2022/09/18 02:59:52;;;;;;;;;3.00;3.00;;;;;15.63;47.14;101511.75;2053159;28;47148;-62
2022/09/18 03:00:55;;;;;;;;;2.40;2.40;;;;;15.61;47.07;101516.25;2052571;28;48148;-61
2022/09/18 03:01:58;;;;;;;;;4.25;4.25;;;;;15.58;47.50;101509.16;2054714;28;47609;-62
2022/09/18 03:02:59;;;;;;;;;4.20;3.20;;;;;15.56;47.80;101508.34;2052647;28;47315;-60
2022/09/18 03:04:04;;;;;;;;;3.00;3.00;;;;;15.55;47.62;101501.25;2062928;28;47664;-62
2022/09/18 03:05:05;;;;;;;;;3.00;3.00;;;;;15.53;47.35;101507.56;2060395;28;47254;-63
2022/09/18 03:06:06;;;;;;;;;4.60;4.00;;;;;15.52;47.82;101508.50;2062634;28;47206;-61
2022/09/18 03:07:07;;;;;;;;;3.25;2.50;;;;;15.48;47.80;101505.00;2059921;28;47567;-63
2022/09/18 03:08:07;;;;;;;;;3.50;3.25;;;;;15.50;47.67;101500.50;2062793;28;47530;-62
2022/09/18 03:09:07;;;;;;;;;3.00;3.00;;;;;15.49;47.39;101500.53;2060685;28;47481;-62
2022/09/18 03:10:08;;;;;;;;;4.75;4.75;;;;;15.48;47.46;101502.31;2062398;28;47908;-63
2022/09/18 03:11:09;;;;;;;;;3.00;3.00;;;;;15.47;47.56;101497.03;2060224;28;47226;-63
2022/09/18 03:12:10;;;;;;;;;2.00;2.00;;;;;15.46;47.68;101495.28;2055925;28;47170;-64
2022/09/18 03:13:10;;;;;;;;;3.60;2.80;;;;;15.45;47.70;101501.56;2052221;28;47459;-61
2022/09/18 03:14:11;;;;;;;;;6.25;5.00;;;;;15.44;47.84;101494.44;2062121;28;48234;-62
2022/09/18 03:15:11;;;;;;;;;3.00;3.00;;;;;15.42;47.76;101498.97;2060396;28;47741;-61
2022/09/18 03:16:12;;;;;;;;;3.67;3.67;;;;;15.40;47.90;101490.13;2062684;28;47391;-62
2022/09/18 03:17:12;;;;;;;;;3.00;3.00;;;;;15.38;47.75;101495.53;2060737;28;47666;-62
2022/09/18 03:18:13;;;;;;;;;4.67;2.67;;;;;15.36;48.25;101494.66;2062039;28;47225;-61
2022/09/18 03:19:13;;;;;;;;;3.67;2.67;;;;;15.38;48.13;101500.00;2060373;28;47832;-61
2022/09/18 03:20:14;;;;;;;;;4.00;4.00;;;;;15.38;48.20;101500.00;2062132;28;47470;-62
2022/09/18 03:21:14;;;;;;;;;4.50;3.00;;;;;15.37;47.58;101498.22;2060278;28;47380;-61
2022/09/18 03:22:15;;;;;;;;;3.33;3.33;;;;;15.35;47.76;101500.94;2061893;28;47791;-62
2022/09/18 03:23:15;;;;;;;;;4.00;4.00;;;;;15.35;47.90;101498.25;2060617;28;47844;-62
2022/09/18 03:24:16;;;;;;;;;2.75;2.75;;;;;15.34;47.97;101495.63;2062289;28;47083;-63
2022/09/18 03:25:16;;;;;;;;;4.00;4.00;;;;;15.34;47.91;101499.19;2061766;28;48005;-62
2022/09/18 03:26:17;;;;;;;;;3.67;3.67;;;;;15.32;48.14;101487.66;2075539;28;47479;-62
2022/09/18 03:27:18;;;;;;;;;1.75;1.75;;;;;15.32;48.08;101493.88;2103567;28;47934;-61
2022/09/18 03:28:18;;;;;;;;;2.00;2.00;;;;;15.34;48.44;101498.31;2104644;28;47581;-61
2022/09/18 03:29:18;;;;;;;;;3.75;3.75;;;;;15.34;48.00;101500.97;2103594;28;47601;-60
2022/09/18 03:30:19;;;;;;;;;2.67;2.67;;;;;15.32;47.98;101498.34;2104094;28;47231;-61
2022/09/18 03:31:19;;;;;;;;;5.00;5.00;;;;;15.31;48.19;101493.94;2103452;28;47537;-61
2022/09/18 03:32:20;;;;;;;;;2.00;2.00;;;;;15.31;48.18;101491.25;2104105;28;47243;-62
2022/09/18 03:33:20;;;;;;;;;3.00;3.00;;;;;15.31;47.84;101493.94;2102800;28;47582;-62
2022/09/18 03:34:20;;;;;;;;;2.00;2.00;;;;;15.29;47.86;101490.44;2100532;28;47643;-62
2022/09/18 03:35:21;;;;;;;;;1.67;1.67;;;;;15.29;48.07;101493.09;2102304;27;47823;-61
2022/09/18 03:36:21;;;;;;;;;1.67;1.67;;;;;15.28;48.28;101491.34;2098670;28;47351;-60
2022/09/18 03:37:23;;;;;;;;;1.00;1.00;;;;;15.27;48.08;101495.81;2103258;28;47270;-60
2022/09/18 03:38:23;;;;;;;;;3.00;3.00;;;;;15.27;48.14;101493.16;2099871;28;47591;-61
2022/09/18 03:39:23;;;;;;;;;2.33;2.33;;;;;15.24;48.12;101490.53;2103550;28;47606;-61
2022/09/18 03:40:24;;;;;;;;;2.67;1.67;;;;;15.24;48.49;101492.34;2104811;28;47725;-61
2022/09/18 03:41:24;;;;;;;;;1.67;1.67;;;;;15.22;48.33;101484.38;2102484;28;47033;-63
2022/09/18 03:42:24;;;;;;;;;3.67;3.67;;;;;15.23;48.18;101487.91;2104509;28;47025;-63
2022/09/18 03:43:26;;;;;;;;;2.00;2.00;;;;;15.23;48.82;101486.13;2098928;28;47431;-63
2022/09/18 03:44:26;;;;;;;;;3.20;3.20;;;;;15.22;48.56;101481.69;2104982;28;47249;-61
2022/09/18 03:45:26;;;;;;;;;2.75;2.75;;;;;15.21;48.29;101487.97;2101079;28;47018;-62
2022/09/18 03:46:27;;;;;;;;;1.00;1.00;;;;;15.20;48.26;101488.00;2100471;28;47138;-63
2022/09/18 03:47:27;;;;;;;;;2.00;2.00;;;;;15.19;48.41;101488.94;2103145;28;47236;-62
2022/09/18 03:48:27;;;;;;;;;3.75;2.25;;;;;15.18;48.03;101493.41;2104717;28;47441;-62
2022/09/18 03:49:28;;;;;;;;;1.33;1.33;;;;;15.18;48.74;101487.19;2102892;28;47188;-63
2022/09/18 03:50:28;;;;;;;;;1.00;1.00;;;;;15.17;48.18;101486.31;2098464;28;47660;-62
2022/09/18 03:51:29;;;;;;;;;3.67;2.33;;;;;15.17;48.52;101488.97;2094387;28;47281;-61
2022/09/18 03:52:29;;;;;;;;;1.00;1.00;;;;;15.16;48.55;101489.91;2095576;28;47813;-62
2022/09/18 03:53:29;;;;;;;;;1.67;1.67;;;;;15.17;48.58;101488.09;2076137;28;47709;-62
2022/09/18 03:54:31;;;;;;;;;4.25;4.25;;;;;15.17;48.50;101485.44;2078591;28;47954;-63
2022/09/18 03:55:32;;;;;;;;;3.50;3.50;;;;;15.17;48.81;101488.09;2101893;28;47388;-63
2022/09/18 03:56:33;;;;;;;;;4.25;2.75;;;;;15.17;48.59;101485.44;2095683;28;46468;-62
2022/09/18 03:57:33;;;;;;;;;2.33;2.33;;;;;15.18;49.03;101489.84;2093021;28;47349;-61
2022/09/18 03:58:33;;;;;;;;;4.33;4.33;;;;;15.18;48.94;101488.06;2104700;28;47632;-62
2022/09/18 03:59:34;;;;;;;;;3.33;3.33;;;;;15.18;48.45;101487.19;2102294;27;47629;-62
2022/09/18 04:00:34;;;;;;;;;1.00;1.00;;;;;15.16;48.77;101489.91;2105179;28;47491;-62
2022/09/18 04:01:34;;;;;;;;;3.33;3.00;;;;;15.18;48.76;101488.06;2100342;27;47650;-61
2022/09/18 04:02:35;;;;;;;;;3.00;3.00;;;;;15.19;48.57;101496.94;2104009;28;47414;-62
2022/09/18 04:03:35;;;;;;;;;1.33;1.33;;;;;15.21;48.65;101492.44;2102707;28;47119;-62
2022/09/18 04:04:35;;;;;;;;;2.67;2.00;;;;;15.24;49.04;101487.88;2103801;28;47823;-62
2022/09/18 04:05:36;;;;;;;;;2.00;2.00;;;;;15.26;48.72;101487.84;2102437;27;47408;-61
2022/09/18 04:06:36;;;;;;;;;2.00;2.00;;;;;15.28;49.01;101478.84;2104671;28;47723;-61
2022/09/18 04:07:37;;;;;;;;;2.33;2.33;;;;;15.30;48.58;101487.72;2100929;27;46598;-61
2022/09/18 04:08:37;;;;;;;;;2.00;2.00;;;;;15.35;48.71;101486.69;2096175;28;47589;-61
2022/09/18 04:09:37;;;;;;;;;2.00;2.00;;;;;15.33;48.90;101486.72;2098793;27;47489;-61
2022/09/18 04:10:38;;;;;;;;;1.67;1.67;;;;;15.32;48.62;101496.56;2104581;28;47487;-61
2022/09/18 04:11:38;;;;;;;;;2.00;2.00;;;;;15.32;48.67;101491.22;2102551;28;47406;-62
2022/09/18 04:12:38;;;;;;;;;4.67;3.00;;;;;15.30;48.68;101489.50;2101647;28;47136;-62
2022/09/18 04:13:39;;;;;;;;;2.00;2.00;;;;;15.28;48.24;101494.03;2100728;28;47628;-62
2022/09/18 04:14:39;;;;;;;;;2.33;2.33;;;;;15.27;48.76;101487.81;2094976;28;47466;-61
2022/09/18 04:15:39;;;;;;;;;3.33;1.67;;;;;15.26;48.54;101487.84;2077307;28;47501;-61
2022/09/18 04:16:40;;;;;;;;;3.00;3.00;;;;;15.25;48.65;101488.78;2085089;28;47879;-61
2022/09/18 04:17:41;;;;;;;;;2.00;2.00;;;;;15.24;49.29;101493.22;2102473;28;47769;-61
2022/09/18 04:18:42;;;;;;;;;2.40;2.40;;;;;15.23;48.46;101479.91;2103412;28;47501;-62
2022/09/18 04:19:42;;;;;;;;;2.67;2.67;;;;;15.24;48.50;101484.31;2104117;28;47491;-62
2022/09/18 04:20:43;;;;;;;;;3.00;2.00;;;;;15.20;48.58;101482.66;2103867;28;47148;-61
2022/09/18 04:21:43;;;;;;;;;2.00;2.00;;;;;15.18;48.32;101480.03;2103644;28;47358;-62
2022/09/18 04:22:43;;;;;;;;;1.67;1.67;;;;;15.17;48.94;101488.09;2096848;28;46365;-62
2022/09/18 04:23:44;;;;;;;;;2.00;2.00;;;;;15.16;49.17;101481.00;2094841;28;47518;-61
2022/09/18 04:24:45;;;;;;;;;3.00;3.00;;;;;15.15;48.91;101484.59;2094310;28;47269;-59
2022/09/18 04:25:46;;;;;;;;;5.40;4.20;;;;;15.14;49.18;101485.53;2101067;28;46103;-63
2022/09/18 04:26:46;;;;;;;;;2.33;2.33;;;;;15.12;49.29;101487.34;2099816;27;46914;-61
2022/09/18 04:27:46;;;;;;;;;3.00;3.00;;;;;15.11;49.06;101490.94;2103538;28;47263;-62
2022/09/18 04:28:47;;;;;;;;;2.25;2.00;;;;;15.12;49.34;101495.34;2103173;28;47319;-60
2022/09/18 04:29:47;;;;;;;;;4.00;4.00;;;;;15.11;48.96;101491.81;2103944;28;47997;-61
2022/09/18 04:30:48;;;;;;;;;2.25;2.25;;;;;15.10;48.64;101494.53;2103499;28;46816;-62
2022/09/18 04:31:48;;;;;;;;;2.67;1.33;;;;;15.08;48.58;101493.69;2103479;28;47680;-61
2022/09/18 04:32:48;;;;;;;;;4.00;3.33;;;;;15.05;48.92;101492.00;2103026;28;47973;-62
2022/09/18 04:33:49;;;;;;;;;6.00;3.00;;;;;15.03;49.43;101488.50;2104041;28;47883;-62
2022/09/18 04:34:49;;;;;;;;;2.67;2.67;;;;;15.02;49.41;101490.28;2103108;28;47601;-62
2022/09/18 04:35:50;;;;;;;;;3.00;3.00;;;;;15.02;49.26;101490.28;2100749;28;47574;-61
2022/09/18 04:36:50;;;;;;;;;1.67;1.33;;;;;15.02;49.05;101489.41;2108055;27;47411;-61
2022/09/18 04:37:50;;;;;;;;;3.33;3.33;;;;;15.03;49.41;101491.16;2102268;28;47095;-61
2022/09/18 04:38:51;;;;;;;;;2.00;2.00;;;;;15.03;49.84;101496.50;2096410;28;47929;-62
2022/09/18 04:39:51;;;;;;;;;2.00;2.00;;;;;15.04;49.61;101482.22;2101559;27;47502;-62
2022/09/18 04:40:54;;;;;;;;;2.00;2.00;;;;;15.06;49.56;101487.53;2096538;27;47835;-63
2022/09/18 04:41:54;;;;;;;;;3.00;3.00;;;;;15.07;49.54;101484.81;2098854;28;47921;-61
2022/09/18 04:42:55;;;;;;;;;2.67;2.67;;;;;15.08;49.34;101483.00;2098708;28;47156;-61
2022/09/18 04:43:55;;;;;;;;;3.00;2.33;;;;;15.09;49.50;101490.09;2102437;28;47794;-61
2022/09/18 04:44:56;;;;;;;;;4.33;3.33;;;;;15.08;49.39;101486.56;2102721;28;46802;-62
2022/09/18 04:45:56;;;;;;;;;2.67;2.67;;;;;15.08;49.79;101488.34;2099662;28;47386;-63
2022/09/18 04:46:56;;;;;;;;;3.33;3.33;;;;;15.08;49.65;101493.69;2100203;28;47308;-61
2022/09/18 04:47:57;;;;;;;;;2.33;2.33;;;;;15.07;49.60;101499.97;2100255;28;48052;-61
2022/09/18 04:48:57;;;;;;;;;3.33;2.67;;;;;15.05;49.18;101496.47;2102949;28;47497;-61
2022/09/18 04:49:58;;;;;;;;;3.67;2.67;;;;;15.06;49.55;101498.22;2103380;28;47425;-61
2022/09/18 04:50:58;;;;;;;;;2.33;2.33;;;;;15.06;49.56;101487.53;2107284;27;47413;-61
2022/09/18 04:51:59;;;;;;;;;5.00;3.50;;;;;15.06;49.61;101490.19;2103224;28;47587;-62
2022/09/18 04:52:59;;;;;;;;;3.33;3.33;;;;;15.06;49.75;101491.06;2102629;28;47630;-62
2022/09/18 04:54:00;;;;;;;;;4.25;2.25;;;;;15.07;49.75;101492.81;2099057;28;46700;-62
2022/09/18 04:55:01;;;;;;;;;1.33;1.33;;;;;15.08;49.98;101499.03;2091424;28;47326;-61
2022/09/18 04:56:01;;;;;;;;;5.33;3.33;;;;;15.08;49.91;101488.34;2078628;28;47630;-60
2022/09/18 04:57:02;;;;;;;;;3.00;3.00;;;;;15.08;49.96;101491.03;2083973;28;47273;-62
2022/09/18 04:58:02;;;;;;;;;2.25;2.25;;;;;15.07;49.39;101489.28;2097832;28;46164;-62
2022/09/18 04:59:03;;;;;;;;;2.50;2.00;;;;;15.07;49.72;101494.63;2096632;28;47571;-62
2022/09/18 05:00:05;;;;;;;;;3.67;2.33;;;;;15.06;49.79;101495.53;2103721;28;47883;-61
2022/09/18 05:01:06;;;;;;;;;3.50;3.50;;;;;15.06;49.84;101493.75;2100866;28;47846;-61